Time,TemperatureF,DewpointF,PressureIn,WindDirection,WindDirectionDegrees,WindSpeedMPH,WindSpeedGustMPH,Humidity,HourlyPrecipIn,Conditions,Clouds,dailyrainin,SoftwareType,DateUTC
2013-05-21 00:00:00,49.0,44.3,29.68,North,0,0.0,0.0,84,0.07,,,0.04,WUHU216HW,2013-05-21 07:00:00,
2013-05-21 00:05:00,49.0,44.3,29.68,North,0,0.0,0.0,84,0.07,,,0.00,WUHU216HW,2013-05-21 07:05:00,
2013-05-21 00:30:00,48.2,44.3,29.67,North,0,0.0,0.0,86,0.06,,,0.03,WUHU216HW,2013-05-21 07:30:00,
2013-05-21 00:31:00,48.2,44.3,29.67,North,0,0.0,0.0,86,0.06,,,0.00,WUHU216HW,2013-05-21 07:31:00,
2013-05-21 00:36:00,48.2,44.3,29.67,North,0,0.0,0.0,86,0.06,,,0.03,WUHU216HW,2013-05-21 07:36:00,
2013-05-21 01:00:00,48.1,43.7,29.66,NNW,338,1.1,1.1,85,0.11,,,0.03,WUHU216HW,2013-05-21 08:00:00,
2013-05-21 01:05:00,48.2,43.9,29.66,NNW,338,1.1,1.1,85,0.09,,,0.11,WUHU216HW,2013-05-21 08:05:00,
2013-05-21 01:30:00,47.5,43.8,29.65,NW,315,1.6,1.8,87,0.13,,,0.18,WUHU216HW,2013-05-21 08:30:00,
2013-05-21 01:31:00,47.7,44.0,29.65,NNW,338,1.8,1.8,87,0.13,,,0.11,WUHU216HW,2013-05-21 08:31:00,
2013-05-21 01:36:00,47.5,43.8,29.65,NW,315,1.6,1.8,87,0.13,,,0.18,WUHU216HW,2013-05-21 08:36:00,
2013-05-21 02:00:00,47.7,44.4,29.65,NW,315,1.8,1.8,88,0.08,,,0.21,WUHU216HW,2013-05-21 09:00:00,
2013-05-21 02:01:00,47.7,44.4,29.65,NW,315,1.8,1.8,88,0.10,,,0.18,WUHU216HW,2013-05-21 09:01:00,
2013-05-21 02:06:00,47.7,44.4,29.65,NW,315,1.8,1.8,88,0.08,,,0.21,WUHU216HW,2013-05-21 09:06:00,
2013-05-21 02:30:00,47.3,44.0,29.65,WSW,248,0.4,0.4,88,0.10,,,0.29,WUHU216HW,2013-05-21 09:30:00,
2013-05-21 02:31:00,47.3,44.0,29.65,WSW,248,0.4,0.4,88,0.10,,,0.21,WUHU216HW,2013-05-21 09:31:00,
2013-05-21 02:36:00,47.3,44.0,29.65,WSW,248,0.4,0.4,88,0.10,,,0.29,WUHU216HW,2013-05-21 09:36:00,
2013-05-21 03:00:00,47.9,44.2,29.64,West,270,0.7,0.7,87,0.08,,,0.30,WUHU216HW,2013-05-21 10:00:00,
2013-05-21 03:01:00,47.9,44.2,29.64,ESE,113,0.7,0.7,87,0.09,,,0.29,WUHU216HW,2013-05-21 10:01:00,
2013-05-21 03:06:00,47.9,44.2,29.64,West,270,0.7,0.7,87,0.08,,,0.30,WUHU216HW,2013-05-21 10:06:00,
2013-05-21 03:30:00,47.7,44.0,29.63,NW,315,0.4,1.1,87,0.02,,,0.30,WUHU216HW,2013-05-21 10:30:00,
2013-05-21 03:31:00,47.7,44.0,29.63,NW,315,1.1,1.1,87,0.02,,,0.30,WUHU216HW,2013-05-21 10:31:00,
2013-05-21 03:36:00,47.7,44.0,29.63,NW,315,0.4,1.1,87,0.02,,,0.30,WUHU216HW,2013-05-21 10:36:00,
2013-05-21 04:00:00,47.3,43.7,29.63,NNE,23,2.2,2.2,87,0.00,,,0.30,WUHU216HW,2013-05-21 11:00:00,
2013-05-21 04:01:00,47.3,43.7,29.63,NNE,23,2.2,2.2,87,0.00,,,0.30,WUHU216HW,2013-05-21 11:01:00,
2013-05-21 04:06:00,47.3,43.7,29.63,NNE,23,2.2,2.2,87,0.00,,,0.30,WUHU216HW,2013-05-21 11:06:00,
2013-05-21 04:30:00,47.7,44.0,29.63,North,0,0.0,0.0,87,0.00,,,0.30,WUHU216HW,2013-05-21 11:30:00,
2013-05-21 04:31:00,47.7,44.0,29.63,North,0,0.0,0.0,87,0.00,,,0.30,WUHU216HW,2013-05-21 11:31:00,
2013-05-21 04:36:00,47.7,44.0,29.63,North,0,0.0,0.0,87,0.00,,,0.30,WUHU216HW,2013-05-21 11:36:00,
2013-05-21 05:00:00,47.9,43.9,29.62,North,0,0.0,0.0,86,0.00,,,0.30,WUHU216HW,2013-05-21 12:00:00,
2013-05-21 05:01:00,47.9,43.9,29.62,North,0,0.0,0.0,86,0.00,,,0.30,WUHU216HW,2013-05-21 12:01:00,
2013-05-21 05:06:00,47.9,43.9,29.62,North,0,0.0,0.0,86,0.00,,,0.30,WUHU216HW,2013-05-21 12:06:00,
2013-05-21 05:30:00,47.5,43.6,29.62,North,0,0.0,0.0,86,0.00,,,0.30,WUHU216HW,2013-05-21 12:30:00,
2013-05-21 05:31:00,47.5,43.6,29.62,North,0,0.0,0.0,86,0.00,,,0.30,WUHU216HW,2013-05-21 12:31:00,
2013-05-21 05:36:00,47.5,43.6,29.62,North,0,0.0,0.0,86,0.00,,,0.30,WUHU216HW,2013-05-21 12:36:00,
2013-05-21 06:00:00,47.3,43.0,29.61,North,0,0.0,0.0,85,0.00,,,0.30,WUHU216HW,2013-05-21 13:00:00,
2013-05-21 06:01:00,47.3,43.0,29.61,North,0,0.0,0.0,85,0.00,,,0.30,WUHU216HW,2013-05-21 13:01:00,
2013-05-21 06:06:00,47.3,43.0,29.61,North,0,0.0,0.0,85,0.00,,,0.30,WUHU216HW,2013-05-21 13:06:00,
2013-05-21 06:30:00,47.2,42.9,29.61,North,0,0.0,0.0,85,0.00,,,0.30,WUHU216HW,2013-05-21 13:30:00,
2013-05-21 06:31:00,47.2,42.9,29.61,North,0,0.0,0.0,85,0.00,,,0.30,WUHU216HW,2013-05-21 13:31:00,
2013-05-21 06:36:00,47.2,42.9,29.61,North,0,0.0,0.0,85,0.00,,,0.30,WUHU216HW,2013-05-21 13:36:00,
2013-05-21 07:00:00,47.3,43.4,29.60,North,0,0.0,0.0,86,0.00,,,0.30,WUHU216HW,2013-05-21 14:00:00,
2013-05-21 07:01:00,47.3,43.4,29.60,North,0,0.0,0.0,86,0.00,,,0.30,WUHU216HW,2013-05-21 14:01:00,
2013-05-21 07:06:00,47.3,43.4,29.60,North,0,0.0,0.0,86,0.00,,,0.30,WUHU216HW,2013-05-21 14:06:00,
2013-05-21 07:30:00,47.9,43.9,29.60,North,0,0.0,0.0,86,0.00,,,0.30,WUHU216HW,2013-05-21 14:30:00,
2013-05-21 07:31:00,47.9,43.9,29.60,North,0,0.0,0.0,86,0.00,,,0.30,WUHU216HW,2013-05-21 14:31:00,
2013-05-21 07:36:00,47.9,43.9,29.60,North,0,0.0,0.0,86,0.00,,,0.30,WUHU216HW,2013-05-21 14:36:00,
2013-05-21 08:00:00,48.2,44.3,29.59,North,0,0.0,0.0,86,0.00,,,0.30,WUHU216HW,2013-05-21 15:00:00,
2013-05-21 08:01:00,48.2,44.3,29.59,North,0,0.0,0.0,86,0.00,,,0.30,WUHU216HW,2013-05-21 15:01:00,
2013-05-21 08:06:00,48.2,44.3,29.59,North,0,0.0,0.0,86,0.00,,,0.30,WUHU216HW,2013-05-21 15:06:00,
2013-05-21 08:11:00,48.2,44.3,29.59,North,0,0.0,0.0,86,0.00,,,0.30,WUHU216HW,2013-05-21 15:11:00,
2013-05-21 08:30:00,49.0,44.7,29.58,North,0,0.0,0.0,85,0.00,,,0.30,WUHU216HW,2013-05-21 15:30:00,
2013-05-21 08:31:00,49.0,44.9,29.58,North,0,0.0,0.0,86,0.00,,,0.30,WUHU216HW,2013-05-21 15:31:00,
2013-05-21 08:36:00,49.0,44.7,29.58,North,0,0.0,0.0,85,0.00,,,0.30,WUHU216HW,2013-05-21 15:36:00,
2013-05-21 09:00:00,49.5,45.1,29.58,North,0,0.0,0.0,85,0.00,,,0.30,WUHU216HW,2013-05-21 16:00:00,
2013-05-21 09:01:00,49.5,45.1,29.58,North,0,0.0,0.0,85,0.00,,,0.30,WUHU216HW,2013-05-21 16:01:00,
2013-05-21 09:06:00,49.5,45.1,29.58,North,0,0.0,0.0,85,0.00,,,0.30,WUHU216HW,2013-05-21 16:06:00,
2013-05-21 09:30:00,48.8,44.5,29.57,North,0,0.0,0.0,85,0.00,,,0.30,WUHU216HW,2013-05-21 16:30:00,
2013-05-21 09:31:00,48.8,44.5,29.57,North,0,0.0,0.0,85,0.00,,,0.30,WUHU216HW,2013-05-21 16:31:00,
2013-05-21 09:36:00,48.8,44.5,29.57,North,0,0.0,0.0,85,0.00,,,0.30,WUHU216HW,2013-05-21 16:36:00,
2013-05-21 10:00:00,49.1,45.1,29.57,North,0,0.0,0.0,86,0.00,,,0.30,WUHU216HW,2013-05-21 17:00:00,
2013-05-21 10:01:00,49.0,44.9,29.57,North,0,0.0,0.0,86,0.00,,,0.30,WUHU216HW,2013-05-21 17:01:00,
2013-05-21 10:06:00,49.1,45.1,29.57,North,0,0.0,0.0,86,0.00,,,0.30,WUHU216HW,2013-05-21 17:06:00,
2013-05-21 10:30:00,50.0,46.3,29.57,North,0,0.0,0.0,87,0.03,,,0.34,WUHU216HW,2013-05-21 17:30:00,
2013-05-21 10:31:00,50.0,46.3,29.57,North,0,0.0,0.0,87,0.03,,,0.30,WUHU216HW,2013-05-21 17:31:00,
2013-05-21 10:36:00,50.0,46.3,29.57,North,0,0.0,0.0,87,0.03,,,0.34,WUHU216HW,2013-05-21 17:36:00,
2013-05-21 11:00:00,50.6,46.4,29.56,SE,135,3.4,3.4,86,0.07,,,0.38,WUHU216HW,2013-05-21 18:00:00,
2013-05-21 11:01:00,50.6,46.4,29.56,SE,135,3.4,3.4,86,0.07,,,0.34,WUHU216HW,2013-05-21 18:01:00,
2013-05-21 11:06:00,50.6,46.4,29.56,SE,135,3.4,3.4,86,0.07,,,0.38,WUHU216HW,2013-05-21 18:06:00,
2013-05-21 11:30:00,51.5,46.4,29.56,ESE,113,1.1,1.1,83,0.05,,,0.39,WUHU216HW,2013-05-21 18:30:00,
2013-05-21 11:31:00,51.5,46.4,29.56,ESE,113,1.1,1.1,83,0.05,,,0.38,WUHU216HW,2013-05-21 18:31:00,
2013-05-21 11:36:00,51.5,46.4,29.56,ESE,113,1.1,1.1,83,0.05,,,0.39,WUHU216HW,2013-05-21 18:36:00,
2013-05-21 12:00:00,52.9,48.3,29.56,North,0,0.0,0.0,84,0.01,,,0.39,WUHU216HW,2013-05-21 19:00:00,
2013-05-21 12:01:00,52.9,48.3,29.56,North,0,0.0,0.0,84,0.01,,,0.39,WUHU216HW,2013-05-21 19:01:00,
2013-05-21 12:06:00,52.9,48.3,29.56,North,0,0.0,0.0,84,0.01,,,0.39,WUHU216HW,2013-05-21 19:06:00,
2013-05-21 12:30:00,52.4,46.7,29.56,North,0,0.0,0.0,81,0.01,,,0.40,WUHU216HW,2013-05-21 19:30:00,
2013-05-21 12:31:00,52.4,46.7,29.56,North,0,0.0,0.0,81,0.01,,,0.39,WUHU216HW,2013-05-21 19:31:00,
2013-05-21 12:36:00,52.4,46.7,29.56,North,0,0.0,0.0,81,0.01,,,0.40,WUHU216HW,2013-05-21 19:36:00,
2013-05-21 13:00:00,53.3,45.5,29.57,North,0,0.0,0.0,75,0.01,,,0.40,WUHU216HW,2013-05-21 20:00:00,
2013-05-21 13:01:00,53.5,45.7,29.57,North,0,0.0,0.0,75,0.01,,,0.40,WUHU216HW,2013-05-21 20:01:00,
2013-05-21 13:06:00,53.3,45.5,29.57,North,0,0.0,0.0,75,0.01,,,0.40,WUHU216HW,2013-05-21 20:06:00,
2013-05-21 13:30:00,53.6,45.2,29.57,North,0,0.0,0.0,73,0.00,,,0.40,WUHU216HW,2013-05-21 20:30:00,
2013-05-21 13:31:00,53.6,45.2,29.57,North,0,0.0,0.0,73,0.00,,,0.40,WUHU216HW,2013-05-21 20:31:00,
2013-05-21 13:36:00,53.6,45.2,29.57,North,0,0.0,0.0,73,0.00,,,0.40,WUHU216HW,2013-05-21 20:36:00,
2013-05-21 14:00:00,53.1,44.3,29.57,North,0,0.0,0.0,72,0.00,,,0.40,WUHU216HW,2013-05-21 21:00:00,
2013-05-21 14:01:00,53.1,44.3,29.57,North,0,0.0,0.0,72,0.00,,,0.40,WUHU216HW,2013-05-21 21:01:00,
2013-05-21 14:06:00,53.1,44.3,29.57,North,0,0.0,0.0,72,0.00,,,0.40,WUHU216HW,2013-05-21 21:06:00,
2013-05-21 14:30:00,53.6,44.8,29.57,NNW,338,10.3,11.9,72,0.00,,,0.40,WUHU216HW,2013-05-21 21:30:00,
2013-05-21 14:31:00,53.8,44.7,29.57,NNW,338,11.9,11.9,71,0.00,,,0.40,WUHU216HW,2013-05-21 21:31:00,
2013-05-21 14:36:00,53.6,44.8,29.57,NNW,338,10.3,11.9,72,0.00,,,0.40,WUHU216HW,2013-05-21 21:36:00,
2013-05-21 15:00:00,54.4,42.9,29.58,North,0,4.7,10.7,65,0.00,,,0.40,WUHU216HW,2013-05-21 22:00:00,
2013-05-21 15:01:00,54.5,43.4,29.58,WSW,248,10.7,10.7,66,0.00,,,0.40,WUHU216HW,2013-05-21 22:01:00,
2013-05-21 15:06:00,54.4,42.9,29.58,North,0,4.7,10.7,65,0.00,,,0.40,WUHU216HW,2013-05-21 22:06:00,
2013-05-21 15:30:00,53.1,42.9,29.58,WNW,293,4.0,4.0,68,0.00,,,0.40,WUHU216HW,2013-05-21 22:30:00,
2013-05-21 15:31:00,53.1,42.9,29.58,WNW,293,4.0,4.0,68,0.00,,,0.40,WUHU216HW,2013-05-21 22:31:00,
2013-05-21 15:36:00,53.1,42.9,29.58,WNW,293,4.0,4.0,68,0.00,,,0.40,WUHU216HW,2013-05-21 22:36:00,
2013-05-21 16:00:00,53.1,42.9,29.59,NNW,338,4.7,4.7,68,0.00,,,0.40,WUHU216HW,2013-05-21 23:00:00,
2013-05-21 16:01:00,53.1,42.9,29.59,NW,315,3.8,3.8,68,0.00,,,0.40,WUHU216HW,2013-05-21 23:01:00,
2013-05-21 16:06:00,53.1,42.9,29.59,NNW,338,4.7,4.7,68,0.00,,,0.40,WUHU216HW,2013-05-21 23:06:00,
2013-05-21 16:31:00,51.5,42.5,29.59,NNW,338,4.7,4.7,71,0.00,,,0.40,WUHU216HW,2013-05-21 23:31:00,
2013-05-21 16:36:00,51.5,42.5,29.59,NNW,338,9.2,9.2,71,0.00,,,0.40,WUHU216HW,2013-05-21 23:36:00,
2013-05-21 17:00:00,51.3,41.1,29.60,WSW,248,11.4,11.4,68,0.00,,,0.40,WUHU216HW,2013-05-22 00:00:00,
2013-05-21 17:01:00,51.3,41.1,29.60,WSW,248,11.4,11.4,68,0.00,,,0.40,WUHU216HW,2013-05-22 00:01:00,
2013-05-21 17:06:00,51.3,41.1,29.60,WSW,248,11.4,11.4,68,0.00,,,0.40,WUHU216HW,2013-05-22 00:06:00,
2013-05-21 17:30:00,50.8,40.6,29.61,WSW,248,2.7,2.7,68,0.00,,,0.40,WUHU216HW,2013-05-22 00:30:00,
2013-05-21 17:31:00,50.8,40.6,29.61,NW,315,2.7,2.7,68,0.00,,,0.40,WUHU216HW,2013-05-22 00:31:00,
2013-05-21 17:36:00,50.8,40.6,29.61,WSW,248,2.7,2.7,68,0.00,,,0.40,WUHU216HW,2013-05-22 00:36:00,
2013-05-21 18:00:00,50.8,41.1,29.61,NNW,338,7.4,8.7,69,0.00,,,0.40,WUHU216HW,2013-05-22 01:00:00,
2013-05-21 18:01:00,50.8,41.1,29.61,WNW,293,8.7,8.7,69,0.00,,,0.40,WUHU216HW,2013-05-22 01:01:00,
2013-05-21 18:06:00,50.8,41.1,29.61,NNW,338,7.4,8.7,69,0.00,,,0.40,WUHU216HW,2013-05-22 01:06:00,
2013-05-21 18:30:00,50.2,41.2,29.62,WSW,248,6.9,6.9,71,0.00,,,0.40,WUHU216HW,2013-05-22 01:30:00,
2013-05-21 18:31:00,50.2,41.2,29.62,WSW,248,6.3,6.3,71,0.00,,,0.40,WUHU216HW,2013-05-22 01:31:00,
2013-05-21 18:36:00,50.2,41.2,29.62,WSW,248,6.9,6.9,71,0.00,,,0.40,WUHU216HW,2013-05-22 01:36:00,
2013-05-21 19:00:00,49.7,40.0,29.63,WNW,293,1.1,1.1,69,0.00,,,0.40,WUHU216HW,2013-05-22 02:00:00,
2013-05-21 19:01:00,49.7,40.0,29.63,WNW,293,1.1,1.1,69,0.00,,,0.40,WUHU216HW,2013-05-22 02:01:00,
2013-05-21 19:06:00,49.7,40.0,29.63,WNW,293,1.1,1.1,69,0.00,,,0.40,WUHU216HW,2013-05-22 02:06:00,
2013-05-21 19:30:00,49.3,40.7,29.64,NW,315,1.8,1.8,72,0.00,,,0.40,WUHU216HW,2013-05-22 02:30:00,
2013-05-21 19:31:00,49.3,40.7,29.64,NW,315,1.8,1.8,72,0.00,,,0.40,WUHU216HW,2013-05-22 02:31:00,
2013-05-21 19:36:00,49.3,40.7,29.64,NW,315,1.8,1.8,72,0.00,,,0.40,WUHU216HW,2013-05-22 02:36:00,
2013-05-21 20:00:00,49.0,40.3,29.64,WSW,248,3.8,3.8,72,0.00,,,0.40,WUHU216HW,2013-05-22 03:00:00,
2013-05-21 20:01:00,49.0,40.3,29.64,WSW,248,3.8,3.8,72,0.00,,,0.40,WUHU216HW,2013-05-22 03:01:00,
2013-05-21 20:06:00,49.0,40.3,29.64,WSW,248,3.8,3.8,72,0.00,,,0.40,WUHU216HW,2013-05-22 03:06:00,
2013-05-21 20:30:00,48.6,40.0,29.65,NNW,338,2.5,2.5,72,0.00,,,0.40,WUHU216HW,2013-05-22 03:30:00,
2013-05-21 20:31:00,48.6,40.0,29.65,NNW,338,1.6,1.6,72,0.00,,,0.40,WUHU216HW,2013-05-22 03:31:00,
2013-05-21 20:36:00,48.6,40.0,29.65,NNW,338,2.5,2.5,72,0.00,,,0.40,WUHU216HW,2013-05-22 03:36:00,
2013-05-21 21:00:00,48.4,40.4,29.65,SSE,158,2.0,2.0,74,0.00,,,0.40,WUHU216HW,2013-05-22 04:00:00,
2013-05-21 21:01:00,48.4,40.4,29.65,SSE,158,2.0,2.0,74,0.00,,,0.40,WUHU216HW,2013-05-22 04:01:00,
2013-05-21 21:06:00,48.4,40.4,29.65,SSE,158,2.0,2.0,74,0.00,,,0.40,WUHU216HW,2013-05-22 04:06:00,
2013-05-21 21:30:00,47.7,41.1,29.66,ESE,113,0.4,0.4,78,0.00,,,0.40,WUHU216HW,2013-05-22 04:30:00,
2013-05-21 21:31:00,47.7,41.1,29.66,ESE,113,0.4,0.4,78,0.00,,,0.40,WUHU216HW,2013-05-22 04:31:00,
2013-05-21 21:36:00,47.7,41.1,29.66,ESE,113,0.4,0.4,78,0.00,,,0.40,WUHU216HW,2013-05-22 04:36:00,
2013-05-21 22:00:00,46.4,40.3,29.66,North,0,0.0,0.0,79,0.00,,,0.40,WUHU216HW,2013-05-22 05:00:00,
2013-05-21 22:01:00,46.4,40.3,29.66,North,0,0.0,0.0,79,0.00,,,0.40,WUHU216HW,2013-05-22 05:01:00,
2013-05-21 22:06:00,46.4,40.3,29.66,North,0,0.0,0.0,79,0.00,,,0.40,WUHU216HW,2013-05-22 05:06:00,
2013-05-21 22:30:00,46.4,40.7,29.66,North,0,0.0,0.0,80,0.00,,,0.40,WUHU216HW,2013-05-22 05:30:00,
2013-05-21 22:31:00,46.4,40.7,29.66,North,0,0.0,0.0,80,0.00,,,0.40,WUHU216HW,2013-05-22 05:31:00,
2013-05-21 22:36:00,46.4,40.7,29.66,North,0,0.0,0.0,80,0.00,,,0.40,WUHU216HW,2013-05-22 05:36:00,
2013-05-21 23:00:00,45.9,40.4,29.66,North,0,0.0,0.0,81,0.00,,,0.40,WUHU216HW,2013-05-22 06:00:00,
2013-05-21 23:01:00,45.9,40.1,29.66,North,0,0.0,0.0,80,0.00,,,0.40,WUHU216HW,2013-05-22 06:01:00,
2013-05-21 23:06:00,45.9,40.4,29.66,North,0,0.0,0.0,81,0.00,,,0.40,WUHU216HW,2013-05-22 06:06:00,
2013-05-21 23:30:00,45.4,39.9,29.66,SE,135,4.5,4.5,81,0.00,,,0.40,WUHU216HW,2013-05-22 06:30:00,
2013-05-21 23:31:00,45.4,39.9,29.66,SE,135,4.5,4.5,81,0.00,,,0.40,WUHU216HW,2013-05-22 06:31:00,
2013-05-21 23:36:00,45.4,39.9,29.66,SE,135,4.5,4.5,81,0.00,,,0.40,WUHU216HW,2013-05-22 06:36:00,